sensor_id;sensor_type;location;lat;lon;timestamp;P1;durP1;ratioP1;P2;durP2;ratioP2
12966;SDS011;6548;49.996;8.238;2022-08-21T00:49:12;6.38;;;2.83;;
12966;SDS011;6548;49.996;8.238;2022-08-21T00:54:16;4.43;;;2.70;;
12966;SDS011;6548;49.996;8.238;2022-08-21T00:56:46;4.93;;;2.58;;
12966;SDS011;6548;49.996;8.238;2022-08-21T00:59:15;6.40;;;3.13;;
12966;SDS011;6548;49.996;8.238;2022-08-21T01:01:42;4.25;;;2.28;;
12966;SDS011;6548;49.996;8.238;2022-08-21T01:04:08;6.88;;;2.88;;
12966;SDS011;6548;49.996;8.238;2022-08-21T01:06:34;9.18;;;3.30;;
12966;SDS011;6548;49.996;8.238;2022-08-21T01:09:00;10.27;;;2.78;;
12966;SDS011;6548;49.996;8.238;2022-08-21T01:11:25;5.35;;;2.25;;
12966;SDS011;6548;49.996;8.238;2022-08-21T01:13:51;6.07;;;2.65;;
12966;SDS011;6548;49.996;8.238;2022-08-21T01:16:17;6.18;;;2.42;;
12966;SDS011;6548;49.996;8.238;2022-08-21T01:18:45;8.95;;;2.53;;
12966;SDS011;6548;49.996;8.238;2022-08-21T01:21:14;6.25;;;2.40;;
12966;SDS011;6548;49.996;8.238;2022-08-21T01:23:47;6.15;;;2.30;;
12966;SDS011;6548;49.996;8.238;2022-08-21T01:26:15;3.97;;;2.22;;
12966;SDS011;6548;49.996;8.238;2022-08-21T01:28:48;5.20;;;3.20;;
12966;SDS011;6548;49.996;8.238;2022-08-21T01:31:19;5.03;;;2.45;;
12966;SDS011;6548;49.996;8.238;2022-08-21T01:33:48;5.05;;;2.60;;
12966;SDS011;6548;49.996;8.238;2022-08-21T01:36:14;4.90;;;2.33;;
12966;SDS011;6548;49.996;8.238;2022-08-21T01:38:39;5.93;;;3.05;;
12966;SDS011;6548;49.996;8.238;2022-08-21T01:41:05;5.88;;;2.75;;
12966;SDS011;6548;49.996;8.238;2022-08-21T01:43:30;4.82;;;2.17;;
12966;SDS011;6548;49.996;8.238;2022-08-21T01:45:56;7.05;;;2.67;;
12966;SDS011;6548;49.996;8.238;2022-08-21T01:48:22;5.88;;;2.80;;
12966;SDS011;6548;49.996;8.238;2022-08-21T01:50:47;8.75;;;4.00;;
12966;SDS011;6548;49.996;8.238;2022-08-21T01:53:13;5.65;;;2.72;;
12966;SDS011;6548;49.996;8.238;2022-08-21T01:55:40;8.35;;;2.72;;
12966;SDS011;6548;49.996;8.238;2022-08-21T01:58:06;6.95;;;3.13;;
12966;SDS011;6548;49.996;8.238;2022-08-21T02:00:32;6.85;;;2.80;;
12966;SDS011;6548;49.996;8.238;2022-08-21T02:02:57;4.78;;;2.42;;
12966;SDS011;6548;49.996;8.238;2022-08-21T02:05:23;6.88;;;2.60;;
12966;SDS011;6548;49.996;8.238;2022-08-21T02:07:49;6.05;;;2.67;;
12966;SDS011;6548;49.996;8.238;2022-08-21T02:10:21;7.28;;;2.75;;
12966;SDS011;6548;49.996;8.238;2022-08-21T02:12:49;8.65;;;2.85;;
12966;SDS011;6548;49.996;8.238;2022-08-21T02:15:15;3.63;;;2.50;;
12966;SDS011;6548;49.996;8.238;2022-08-21T02:17:42;5.35;;;2.70;;
12966;SDS011;6548;49.996;8.238;2022-08-21T02:20:27;6.40;;;2.58;;
12966;SDS011;6548;49.996;8.238;2022-08-21T02:22:54;3.30;;;2.30;;
12966;SDS011;6548;49.996;8.238;2022-08-21T02:25:20;6.63;;;2.80;;
12966;SDS011;6548;49.996;8.238;2022-08-21T02:27:47;3.90;;;2.90;;
12966;SDS011;6548;49.996;8.238;2022-08-21T02:30:14;7.03;;;2.47;;
12966;SDS011;6548;49.996;8.238;2022-08-21T02:32:42;4.43;;;2.72;;
12966;SDS011;6548;49.996;8.238;2022-08-21T02:35:08;6.82;;;2.30;;
12966;SDS011;6548;49.996;8.238;2022-08-21T02:37:42;7.35;;;2.47;;
12966;SDS011;6548;49.996;8.238;2022-08-21T02:40:19;8.07;;;2.85;;
12966;SDS011;6548;49.996;8.238;2022-08-21T02:42:47;6.45;;;2.90;;
12966;SDS011;6548;49.996;8.238;2022-08-21T02:45:13;5.18;;;2.65;;
12966;SDS011;6548;49.996;8.238;2022-08-21T02:47:39;6.97;;;2.83;;
12966;SDS011;6548;49.996;8.238;2022-08-21T02:52:36;7.45;;;2.78;;
12966;SDS011;6548;49.996;8.238;2022-08-21T02:55:02;6.43;;;2.90;;
12966;SDS011;6548;49.996;8.238;2022-08-21T02:57:28;6.35;;;2.85;;
12966;SDS011;6548;49.996;8.238;2022-08-21T02:59:53;5.53;;;2.90;;
12966;SDS011;6548;49.996;8.238;2022-08-21T03:02:19;6.35;;;2.97;;
12966;SDS011;6548;49.996;8.238;2022-08-21T03:04:46;5.78;;;3.47;;
12966;SDS011;6548;49.996;8.238;2022-08-21T03:07:12;7.25;;;2.95;;
12966;SDS011;6548;49.996;8.238;2022-08-21T03:09:37;5.60;;;3.00;;
12966;SDS011;6548;49.996;8.238;2022-08-21T03:12:03;4.40;;;3.22;;
12966;SDS011;6548;49.996;8.238;2022-08-21T03:14:29;9.57;;;3.60;;
12966;SDS011;6548;49.996;8.238;2022-08-21T03:16:54;7.97;;;2.85;;
12966;SDS011;6548;49.996;8.238;2022-08-21T03:19:20;10.35;;;3.00;;
12966;SDS011;6548;49.996;8.238;2022-08-21T03:21:45;7.18;;;3.63;;
12966;SDS011;6548;49.996;8.238;2022-08-21T03:24:11;8.75;;;3.30;;
12966;SDS011;6548;49.996;8.238;2022-08-21T03:26:37;8.82;;;3.13;;
12966;SDS011;6548;49.996;8.238;2022-08-21T03:29:02;8.88;;;2.80;;
12966;SDS011;6548;49.996;8.238;2022-08-21T03:31:28;6.90;;;3.22;;
12966;SDS011;6548;49.996;8.238;2022-08-21T03:33:56;8.15;;;2.67;;
12966;SDS011;6548;49.996;8.238;2022-08-21T03:36:22;7.80;;;3.28;;
12966;SDS011;6548;49.996;8.238;2022-08-21T03:38:48;5.53;;;3.30;;
12966;SDS011;6548;49.996;8.238;2022-08-21T03:41:13;5.85;;;2.78;;
12966;SDS011;6548;49.996;8.238;2022-08-21T03:43:39;7.07;;;3.20;;
12966;SDS011;6548;49.996;8.238;2022-08-21T03:46:05;7.05;;;2.75;;
12966;SDS011;6548;49.996;8.238;2022-08-21T03:48:32;6.45;;;3.10;;
12966;SDS011;6548;49.996;8.238;2022-08-21T03:50:59;6.22;;;2.95;;
12966;SDS011;6548;49.996;8.238;2022-08-21T03:53:24;6.07;;;3.65;;
12966;SDS011;6548;49.996;8.238;2022-08-21T03:55:51;3.88;;;2.97;;
12966;SDS011;6548;49.996;8.238;2022-08-21T03:58:19;6.28;;;3.75;;
12966;SDS011;6548;49.996;8.238;2022-08-21T04:00:47;5.20;;;2.95;;
12966;SDS011;6548;49.996;8.238;2022-08-21T04:03:14;5.80;;;2.67;;
12966;SDS011;6548;49.996;8.238;2022-08-21T04:05:40;8.02;;;3.15;;
12966;SDS011;6548;49.996;8.238;2022-08-21T04:08:06;7.40;;;3.20;;
12966;SDS011;6548;49.996;8.238;2022-08-21T04:10:34;6.18;;;2.78;;
12966;SDS011;6548;49.996;8.238;2022-08-21T04:13:01;6.13;;;3.30;;
12966;SDS011;6548;49.996;8.238;2022-08-21T04:15:27;5.65;;;3.25;;
12966;SDS011;6548;49.996;8.238;2022-08-21T04:17:53;5.97;;;2.95;;
12966;SDS011;6548;49.996;8.238;2022-08-21T04:20:20;6.63;;;3.60;;
12966;SDS011;6548;49.996;8.238;2022-08-21T04:22:46;8.23;;;3.60;;
12966;SDS011;6548;49.996;8.238;2022-08-21T04:25:13;7.07;;;3.33;;
12966;SDS011;6548;49.996;8.238;2022-08-21T04:27:40;7.97;;;3.42;;
12966;SDS011;6548;49.996;8.238;2022-08-21T04:30:06;6.88;;;3.47;;
12966;SDS011;6548;49.996;8.238;2022-08-21T04:32:34;5.95;;;2.67;;
12966;SDS011;6548;49.996;8.238;2022-08-21T04:35:07;9.15;;;3.00;;
12966;SDS011;6548;49.996;8.238;2022-08-21T04:40:00;6.65;;;2.50;;
12966;SDS011;6548;49.996;8.238;2022-08-21T04:42:27;10.07;;;3.40;;
12966;SDS011;6548;49.996;8.238;2022-08-21T04:44:53;3.30;;;2.85;;
12966;SDS011;6548;49.996;8.238;2022-08-21T04:47:19;4.60;;;2.95;;
12966;SDS011;6548;49.996;8.238;2022-08-21T04:49:45;5.97;;;2.55;;
12966;SDS011;6548;49.996;8.238;2022-08-21T04:52:12;4.90;;;2.70;;
12966;SDS011;6548;49.996;8.238;2022-08-21T04:54:42;5.32;;;2.70;;
12966;SDS011;6548;49.996;8.238;2022-08-21T04:57:10;8.23;;;3.13;;
12966;SDS011;6548;49.996;8.238;2022-08-21T04:59:37;6.35;;;2.70;;
12966;SDS011;6548;49.996;8.238;2022-08-21T05:02:06;4.75;;;3.08;;
12966;SDS011;6548;49.996;8.238;2022-08-21T05:04:34;5.93;;;2.75;;
12966;SDS011;6548;49.996;8.238;2022-08-21T05:07:09;9.05;;;3.03;;
12966;SDS011;6548;49.996;8.238;2022-08-21T05:09:39;9.82;;;3.15;;
12966;SDS011;6548;49.996;8.238;2022-08-21T05:12:06;6.80;;;2.67;;
12966;SDS011;6548;49.996;8.238;2022-08-21T05:14:32;6.10;;;3.05;;
12966;SDS011;6548;49.996;8.238;2022-08-21T05:16:57;6.50;;;2.85;;
12966;SDS011;6548;49.996;8.238;2022-08-21T05:19:23;6.95;;;2.97;;
12966;SDS011;6548;49.996;8.238;2022-08-21T05:21:49;7.43;;;3.00;;
12966;SDS011;6548;49.996;8.238;2022-08-21T05:24:15;7.05;;;2.83;;
12966;SDS011;6548;49.996;8.238;2022-08-21T05:26:41;7.40;;;2.80;;
12966;SDS011;6548;49.996;8.238;2022-08-21T05:29:07;10.40;;;5.10;;
12966;SDS011;6548;49.996;8.238;2022-08-21T05:31:32;6.43;;;2.78;;
12966;SDS011;6548;49.996;8.238;2022-08-21T05:33:58;6.53;;;2.78;;
12966;SDS011;6548;49.996;8.238;2022-08-21T05:36:24;7.28;;;2.58;;
12966;SDS011;6548;49.996;8.238;2022-08-21T05:38:49;7.78;;;2.65;;
12966;SDS011;6548;49.996;8.238;2022-08-21T05:41:15;6.68;;;2.92;;
12966;SDS011;6548;49.996;8.238;2022-08-21T05:43:41;5.00;;;2.47;;
12966;SDS011;6548;49.996;8.238;2022-08-21T05:46:07;6.25;;;3.53;;
12966;SDS011;6548;49.996;8.238;2022-08-21T05:48:33;6.22;;;2.85;;
12966;SDS011;6548;49.996;8.238;2022-08-21T05:51:08;8.60;;;3.75;;
12966;SDS011;6548;49.996;8.238;2022-08-21T05:53:36;8.73;;;3.15;;
12966;SDS011;6548;49.996;8.238;2022-08-21T05:56:02;5.10;;;3.33;;
12966;SDS011;6548;49.996;8.238;2022-08-21T05:58:29;5.43;;;3.03;;
12966;SDS011;6548;49.996;8.238;2022-08-21T06:00:55;7.80;;;2.92;;
12966;SDS011;6548;49.996;8.238;2022-08-21T06:03:24;6.28;;;2.92;;
12966;SDS011;6548;49.996;8.238;2022-08-21T06:05:51;4.60;;;2.90;;
12966;SDS011;6548;49.996;8.238;2022-08-21T06:08:18;6.03;;;2.85;;
12966;SDS011;6548;49.996;8.238;2022-08-21T06:10:46;4.70;;;3.00;;
12966;SDS011;6548;49.996;8.238;2022-08-21T06:13:12;7.70;;;3.28;;
12966;SDS011;6548;49.996;8.238;2022-08-21T06:15:40;5.35;;;3.15;;
12966;SDS011;6548;49.996;8.238;2022-08-21T06:18:06;5.80;;;2.67;;
12966;SDS011;6548;49.996;8.238;2022-08-21T06:20:31;10.93;;;3.53;;
12966;SDS011;6548;49.996;8.238;2022-08-21T06:22:57;5.15;;;2.92;;
12966;SDS011;6548;49.996;8.238;2022-08-21T06:25:23;5.78;;;3.15;;
12966;SDS011;6548;49.996;8.238;2022-08-21T06:27:49;8.85;;;3.00;;
12966;SDS011;6548;49.996;8.238;2022-08-21T06:30:15;7.43;;;2.70;;
12966;SDS011;6548;49.996;8.238;2022-08-21T06:32:40;9.52;;;2.70;;
12966;SDS011;6548;49.996;8.238;2022-08-21T06:35:06;4.72;;;3.00;;
12966;SDS011;6548;49.996;8.238;2022-08-21T06:37:32;10.07;;;3.00;;
12966;SDS011;6548;49.996;8.238;2022-08-21T06:39:58;7.63;;;2.60;;
12966;SDS011;6548;49.996;8.238;2022-08-21T06:42:42;5.93;;;3.45;;
12966;SDS011;6548;49.996;8.238;2022-08-21T06:45:13;6.63;;;2.83;;
12966;SDS011;6548;49.996;8.238;2022-08-21T06:47:48;8.18;;;4.03;;
12966;SDS011;6548;49.996;8.238;2022-08-21T06:50:21;7.93;;;2.80;;
12966;SDS011;6548;49.996;8.238;2022-08-21T06:52:47;6.80;;;2.95;;
12966;SDS011;6548;49.996;8.238;2022-08-21T06:55:12;8.18;;;3.80;;
12966;SDS011;6548;49.996;8.238;2022-08-21T06:57:38;6.57;;;3.35;;
12966;SDS011;6548;49.996;8.238;2022-08-21T07:00:04;6.93;;;2.88;;
12966;SDS011;6548;49.996;8.238;2022-08-21T07:02:31;5.78;;;2.90;;
12966;SDS011;6548;49.996;8.238;2022-08-21T07:04:58;7.55;;;3.20;;
12966;SDS011;6548;49.996;8.238;2022-08-21T07:07:24;4.90;;;3.55;;
12966;SDS011;6548;49.996;8.238;2022-08-21T07:09:49;7.85;;;3.20;;
12966;SDS011;6548;49.996;8.238;2022-08-21T07:12:15;10.68;;;4.55;;
12966;SDS011;6548;49.996;8.238;2022-08-21T07:14:40;6.57;;;2.83;;
12966;SDS011;6548;49.996;8.238;2022-08-21T07:17:07;6.20;;;3.42;;
12966;SDS011;6548;49.996;8.238;2022-08-21T07:19:32;5.85;;;2.97;;
12966;SDS011;6548;49.996;8.238;2022-08-21T07:21:58;5.38;;;3.13;;
12966;SDS011;6548;49.996;8.238;2022-08-21T07:24:25;5.85;;;3.08;;
12966;SDS011;6548;49.996;8.238;2022-08-21T07:26:51;4.88;;;3.78;;
12966;SDS011;6548;49.996;8.238;2022-08-21T07:29:16;5.30;;;3.45;;
12966;SDS011;6548;49.996;8.238;2022-08-21T07:31:43;8.07;;;3.35;;
12966;SDS011;6548;49.996;8.238;2022-08-21T07:34:09;7.28;;;3.03;;
12966;SDS011;6548;49.996;8.238;2022-08-21T07:36:35;7.55;;;3.47;;
12966;SDS011;6548;49.996;8.238;2022-08-21T07:39:00;5.30;;;3.03;;
12966;SDS011;6548;49.996;8.238;2022-08-21T07:41:27;9.32;;;4.05;;
12966;SDS011;6548;49.996;8.238;2022-08-21T07:43:54;9.07;;;3.97;;
12966;SDS011;6548;49.996;8.238;2022-08-21T07:46:22;7.38;;;4.10;;
12966;SDS011;6548;49.996;8.238;2022-08-21T07:48:48;8.25;;;4.38;;
12966;SDS011;6548;49.996;8.238;2022-08-21T07:51:14;8.77;;;4.38;;
12966;SDS011;6548;49.996;8.238;2022-08-21T07:53:41;6.00;;;3.53;;
12966;SDS011;6548;49.996;8.238;2022-08-21T07:56:07;8.38;;;3.67;;
12966;SDS011;6548;49.996;8.238;2022-08-21T07:58:33;6.97;;;4.00;;
12966;SDS011;6548;49.996;8.238;2022-08-21T08:00:59;6.38;;;3.60;;
12966;SDS011;6548;49.996;8.238;2022-08-21T08:03:25;8.70;;;4.47;;
12966;SDS011;6548;49.996;8.238;2022-08-21T08:05:51;10.18;;;4.55;;
12966;SDS011;6548;49.996;8.238;2022-08-21T08:08:19;7.20;;;4.55;;
12966;SDS011;6548;49.996;8.238;2022-08-21T08:10:45;8.93;;;3.90;;
12966;SDS011;6548;49.996;8.238;2022-08-21T08:13:10;7.38;;;3.88;;
12966;SDS011;6548;49.996;8.238;2022-08-21T08:15:36;8.10;;;4.30;;
12966;SDS011;6548;49.996;8.238;2022-08-21T08:18:02;7.70;;;3.70;;
12966;SDS011;6548;49.996;8.238;2022-08-21T08:20:28;8.40;;;4.28;;
12966;SDS011;6548;49.996;8.238;2022-08-21T08:22:54;4.65;;;3.70;;
12966;SDS011;6548;49.996;8.238;2022-08-21T08:25:20;7.43;;;4.65;;
12966;SDS011;6548;49.996;8.238;2022-08-21T08:27:47;6.90;;;4.45;;
12966;SDS011;6548;49.996;8.238;2022-08-21T08:30:14;7.03;;;4.80;;
12966;SDS011;6548;49.996;8.238;2022-08-21T08:32:41;9.43;;;5.07;;
12966;SDS011;6548;49.996;8.238;2022-08-21T08:35:07;6.63;;;4.28;;
12966;SDS011;6548;49.996;8.238;2022-08-21T08:37:33;11.10;;;4.25;;
12966;SDS011;6548;49.996;8.238;2022-08-21T08:40:02;8.40;;;3.55;;
12966;SDS011;6548;49.996;8.238;2022-08-21T08:42:30;7.95;;;4.53;;
12966;SDS011;6548;49.996;8.238;2022-08-21T08:47:32;9.90;;;4.55;;
12966;SDS011;6548;49.996;8.238;2022-08-21T08:52:35;8.32;;;3.90;;
12966;SDS011;6548;49.996;8.238;2022-08-21T08:57:37;7.47;;;3.50;;
12966;SDS011;6548;49.996;8.238;2022-08-21T09:00:05;6.43;;;3.20;;
12966;SDS011;6548;49.996;8.238;2022-08-21T09:02:35;11.43;;;3.90;;
12966;SDS011;6548;49.996;8.238;2022-08-21T09:05:05;6.28;;;3.35;;
12966;SDS011;6548;49.996;8.238;2022-08-21T09:07:40;5.88;;;3.03;;
12966;SDS011;6548;49.996;8.238;2022-08-21T09:10:18;6.15;;;3.17;;
12966;SDS011;6548;49.996;8.238;2022-08-21T09:26:27;9.57;;;3.78;;
12966;SDS011;6548;49.996;8.238;2022-08-21T09:28:59;7.18;;;4.03;;
12966;SDS011;6548;49.996;8.238;2022-08-21T09:34:03;6.87;;;3.40;;
12966;SDS011;6548;49.996;8.238;2022-08-21T09:36:41;7.20;;;2.75;;
12966;SDS011;6548;49.996;8.238;2022-08-21T09:39:13;8.20;;;3.03;;
12966;SDS011;6548;49.996;8.238;2022-08-21T09:41:49;4.32;;;2.58;;
12966;SDS011;6548;49.996;8.238;2022-08-21T09:44:28;7.20;;;3.25;;
12966;SDS011;6548;49.996;8.238;2022-08-21T09:46:55;5.50;;;2.83;;
12966;SDS011;6548;49.996;8.238;2022-08-21T09:49:35;7.68;;;2.72;;
12966;SDS011;6548;49.996;8.238;2022-08-21T09:52:04;3.22;;;2.63;;
12966;SDS011;6548;49.996;8.238;2022-08-21T09:54:41;7.32;;;3.13;;
12966;SDS011;6548;49.996;8.238;2022-08-21T09:59:54;4.85;;;2.42;;
12966;SDS011;6548;49.996;8.238;2022-08-21T10:02:30;4.53;;;2.40;;
12966;SDS011;6548;49.996;8.238;2022-08-21T10:07:32;5.35;;;2.22;;
12966;SDS011;6548;49.996;8.238;2022-08-21T10:10:23;4.30;;;2.30;;
12966;SDS011;6548;49.996;8.238;2022-08-21T10:13:10;7.25;;;3.20;;
12966;SDS011;6548;49.996;8.238;2022-08-21T10:18:39;8.60;;;2.38;;
12966;SDS011;6548;49.996;8.238;2022-08-21T10:23:42;7.13;;;2.60;;
12966;SDS011;6548;49.996;8.238;2022-08-21T10:26:33;4.43;;;2.10;;
12966;SDS011;6548;49.996;8.238;2022-08-21T10:32:04;5.30;;;2.90;;
12966;SDS011;6548;49.996;8.238;2022-08-21T10:35:02;6.72;;;2.38;;
12966;SDS011;6548;49.996;8.238;2022-08-21T10:37:44;7.10;;;2.78;;
12966;SDS011;6548;49.996;8.238;2022-08-21T10:40:46;6.40;;;2.50;;
12966;SDS011;6548;49.996;8.238;2022-08-21T10:46:29;4.45;;;2.58;;
12966;SDS011;6548;49.996;8.238;2022-08-21T10:57:19;4.45;;;2.70;;
12966;SDS011;6548;49.996;8.238;2022-08-21T11:00:05;4.65;;;2.45;;
12966;SDS011;6548;49.996;8.238;2022-08-21T11:02:38;7.60;;;2.42;;
12966;SDS011;6548;49.996;8.238;2022-08-21T11:10:28;5.35;;;2.22;;
12966;SDS011;6548;49.996;8.238;2022-08-21T11:16:29;3.20;;;1.70;;
12966;SDS011;6548;49.996;8.238;2022-08-21T11:22:05;4.07;;;2.08;;
12966;SDS011;6548;49.996;8.238;2022-08-21T11:24:41;6.88;;;2.80;;
12966;SDS011;6548;49.996;8.238;2022-08-21T11:29:57;4.00;;;2.20;;
12966;SDS011;6548;49.996;8.238;2022-08-21T11:35:08;4.93;;;2.70;;
12966;SDS011;6548;49.996;8.238;2022-08-21T11:37:48;5.85;;;2.65;;
12966;SDS011;6548;49.996;8.238;2022-08-21T11:54:24;4.45;;;2.20;;
12966;SDS011;6548;49.996;8.238;2022-08-21T11:57:17;7.45;;;3.35;;
12966;SDS011;6548;49.996;8.238;2022-08-21T12:02:49;5.90;;;2.30;;
12966;SDS011;6548;49.996;8.238;2022-08-21T12:07:58;4.85;;;2.00;;
12966;SDS011;6548;49.996;8.238;2022-08-21T12:10:31;4.50;;;2.22;;
12966;SDS011;6548;49.996;8.238;2022-08-21T12:13:07;3.35;;;2.17;;
12966;SDS011;6548;49.996;8.238;2022-08-21T12:15:36;4.47;;;2.45;;
12966;SDS011;6548;49.996;8.238;2022-08-21T12:23:48;6.50;;;2.30;;
12966;SDS011;6548;49.996;8.238;2022-08-21T12:29:14;4.57;;;2.03;;
12966;SDS011;6548;49.996;8.238;2022-08-21T12:31:52;6.20;;;2.50;;
12966;SDS011;6548;49.996;8.238;2022-08-21T12:34:30;2.97;;;1.98;;
12966;SDS011;6548;49.996;8.238;2022-08-21T12:37:02;4.70;;;2.13;;
12966;SDS011;6548;49.996;8.238;2022-08-21T12:39:39;3.20;;;2.13;;
12966;SDS011;6548;49.996;8.238;2022-08-21T12:42:16;6.43;;;2.58;;
12966;SDS011;6548;49.996;8.238;2022-08-21T12:45:07;5.72;;;1.90;;
12966;SDS011;6548;49.996;8.238;2022-08-21T12:47:47;3.15;;;1.83;;
12966;SDS011;6548;49.996;8.238;2022-08-21T12:51:05;5.25;;;2.00;;
12966;SDS011;6548;49.996;8.238;2022-08-21T12:53:50;5.32;;;2.22;;
12966;SDS011;6548;49.996;8.238;2022-08-21T12:56:20;5.55;;;2.30;;
12966;SDS011;6548;49.996;8.238;2022-08-21T12:58:49;2.97;;;2.03;;
12966;SDS011;6548;49.996;8.238;2022-08-21T13:01:21;5.95;;;2.35;;
12966;SDS011;6548;49.996;8.238;2022-08-21T13:03:53;5.45;;;1.77;;
12966;SDS011;6548;49.996;8.238;2022-08-21T13:06:20;4.63;;;2.13;;
12966;SDS011;6548;49.996;8.238;2022-08-21T13:08:48;4.82;;;2.33;;
12966;SDS011;6548;49.996;8.238;2022-08-21T13:11:20;6.13;;;2.20;;
12966;SDS011;6548;49.996;8.238;2022-08-21T13:13:49;4.65;;;1.95;;
12966;SDS011;6548;49.996;8.238;2022-08-21T13:16:20;7.45;;;2.50;;
12966;SDS011;6548;49.996;8.238;2022-08-21T13:18:52;4.30;;;2.25;;
12966;SDS011;6548;49.996;8.238;2022-08-21T13:21:26;5.15;;;2.10;;
12966;SDS011;6548;49.996;8.238;2022-08-21T13:26:41;3.72;;;1.92;;
12966;SDS011;6548;49.996;8.238;2022-08-21T13:29:08;3.85;;;2.30;;
12966;SDS011;6548;49.996;8.238;2022-08-21T13:31:36;5.05;;;2.20;;
12966;SDS011;6548;49.996;8.238;2022-08-21T13:34:04;6.32;;;2.30;;
12966;SDS011;6548;49.996;8.238;2022-08-21T13:36:34;4.60;;;2.35;;
12966;SDS011;6548;49.996;8.238;2022-08-21T13:39:02;5.10;;;2.00;;
12966;SDS011;6548;49.996;8.238;2022-08-21T13:41:31;4.72;;;2.00;;
12966;SDS011;6548;49.996;8.238;2022-08-21T13:44:00;4.40;;;1.77;;
12966;SDS011;6548;49.996;8.238;2022-08-21T13:46:32;4.78;;;2.10;;
12966;SDS011;6548;49.996;8.238;2022-08-21T13:49:00;5.60;;;2.33;;
12966;SDS011;6548;49.996;8.238;2022-08-21T13:51:28;3.50;;;2.25;;
12966;SDS011;6548;49.996;8.238;2022-08-21T13:53:55;4.30;;;2.05;;
12966;SDS011;6548;49.996;8.238;2022-08-21T13:56:25;4.28;;;2.28;;
12966;SDS011;6548;49.996;8.238;2022-08-21T13:58:56;3.72;;;1.85;;
12966;SDS011;6548;49.996;8.238;2022-08-21T14:04:23;5.68;;;1.92;;
12966;SDS011;6548;49.996;8.238;2022-08-21T14:06:52;3.45;;;1.90;;
12966;SDS011;6548;49.996;8.238;2022-08-21T14:09:32;3.80;;;1.92;;
12966;SDS011;6548;49.996;8.238;2022-08-21T14:12:02;3.03;;;1.90;;
12966;SDS011;6548;49.996;8.238;2022-08-21T14:14:41;4.78;;;2.17;;
12966;SDS011;6548;49.996;8.238;2022-08-21T14:17:24;3.78;;;2.25;;
12966;SDS011;6548;49.996;8.238;2022-08-21T14:19:55;3.88;;;2.20;;
12966;SDS011;6548;49.996;8.238;2022-08-21T14:25:00;3.92;;;1.70;;
12966;SDS011;6548;49.996;8.238;2022-08-21T14:27:27;4.07;;;1.80;;
12966;SDS011;6548;49.996;8.238;2022-08-21T14:29:57;5.25;;;1.98;;
12966;SDS011;6548;49.996;8.238;2022-08-21T14:34:53;5.47;;;2.08;;
12966;SDS011;6548;49.996;8.238;2022-08-21T14:37:18;4.55;;;2.10;;
12966;SDS011;6548;49.996;8.238;2022-08-21T14:39:44;4.18;;;1.63;;
12966;SDS011;6548;49.996;8.238;2022-08-21T14:42:10;4.63;;;2.25;;
12966;SDS011;6548;49.996;8.238;2022-08-21T14:44:36;3.88;;;1.70;;
12966;SDS011;6548;49.996;8.238;2022-08-21T14:47:02;4.20;;;1.95;;
12966;SDS011;6548;49.996;8.238;2022-08-21T14:49:28;2.90;;;1.90;;
12966;SDS011;6548;49.996;8.238;2022-08-21T14:51:55;4.25;;;1.70;;
12966;SDS011;6548;49.996;8.238;2022-08-21T14:54:22;2.42;;;1.65;;
12966;SDS011;6548;49.996;8.238;2022-08-21T14:56:49;3.35;;;1.80;;
12966;SDS011;6548;49.996;8.238;2022-08-21T14:59:15;5.35;;;1.70;;
12966;SDS011;6548;49.996;8.238;2022-08-21T15:01:41;3.72;;;2.20;;
12966;SDS011;6548;49.996;8.238;2022-08-21T15:04:07;6.32;;;1.60;;
12966;SDS011;6548;49.996;8.238;2022-08-21T15:06:32;4.10;;;1.80;;
12966;SDS011;6548;49.996;8.238;2022-08-21T15:08:58;4.80;;;2.05;;
12966;SDS011;6548;49.996;8.238;2022-08-21T15:11:24;4.40;;;1.83;;
12966;SDS011;6548;49.996;8.238;2022-08-21T15:13:52;5.50;;;2.33;;
12966;SDS011;6548;49.996;8.238;2022-08-21T15:16:21;4.15;;;1.70;;
12966;SDS011;6548;49.996;8.238;2022-08-21T15:18:47;4.72;;;1.75;;
12966;SDS011;6548;49.996;8.238;2022-08-21T15:21:13;4.20;;;1.63;;
12966;SDS011;6548;49.996;8.238;2022-08-21T15:23:38;4.45;;;1.70;;
12966;SDS011;6548;49.996;8.238;2022-08-21T15:26:04;2.60;;;1.67;;
12966;SDS011;6548;49.996;8.238;2022-08-21T15:28:30;2.58;;;1.50;;
12966;SDS011;6548;49.996;8.238;2022-08-21T15:30:56;3.88;;;2.03;;
12966;SDS011;6548;49.996;8.238;2022-08-21T15:33:21;3.90;;;2.17;;
12966;SDS011;6548;49.996;8.238;2022-08-21T15:35:47;6.60;;;3.10;;
12966;SDS011;6548;49.996;8.238;2022-08-21T15:38:13;2.80;;;1.63;;
12966;SDS011;6548;49.996;8.238;2022-08-21T15:40:39;5.05;;;1.58;;
12966;SDS011;6548;49.996;8.238;2022-08-21T15:43:06;4.13;;;1.83;;
12966;SDS011;6548;49.996;8.238;2022-08-21T15:45:42;3.50;;;1.98;;
12966;SDS011;6548;49.996;8.238;2022-08-21T15:48:08;3.13;;;1.35;;
12966;SDS011;6548;49.996;8.238;2022-08-21T15:50:34;2.65;;;1.70;;
12966;SDS011;6548;49.996;8.238;2022-08-21T15:52:59;3.83;;;2.00;;
12966;SDS011;6548;49.996;8.238;2022-08-21T15:55:25;3.67;;;1.70;;
12966;SDS011;6548;49.996;8.238;2022-08-21T15:57:51;2.60;;;1.60;;
12966;SDS011;6548;49.996;8.238;2022-08-21T16:00:19;4.18;;;1.75;;
12966;SDS011;6548;49.996;8.238;2022-08-21T16:02:49;3.03;;;1.75;;
12966;SDS011;6548;49.996;8.238;2022-08-21T16:05:24;3.90;;;1.65;;
12966;SDS011;6548;49.996;8.238;2022-08-21T16:07:52;3.05;;;1.85;;
12966;SDS011;6548;49.996;8.238;2022-08-21T16:10:21;2.47;;;1.52;;
12966;SDS011;6548;49.996;8.238;2022-08-21T16:12:53;3.37;;;1.80;;
12966;SDS011;6548;49.996;8.238;2022-08-21T16:15:22;5.90;;;1.80;;
12966;SDS011;6548;49.996;8.238;2022-08-21T16:17:49;2.95;;;1.85;;
12966;SDS011;6548;49.996;8.238;2022-08-21T16:20:18;3.17;;;1.45;;
12966;SDS011;6548;49.996;8.238;2022-08-21T16:22:49;5.05;;;1.85;;
12966;SDS011;6548;49.996;8.238;2022-08-21T16:25:15;4.75;;;1.77;;
12966;SDS011;6548;49.996;8.238;2022-08-21T16:27:42;2.70;;;1.55;;
12966;SDS011;6548;49.996;8.238;2022-08-21T16:30:09;3.28;;;1.60;;
12966;SDS011;6548;49.996;8.238;2022-08-21T16:32:35;3.95;;;1.77;;
12966;SDS011;6548;49.996;8.238;2022-08-21T16:35:01;3.50;;;1.70;;
12966;SDS011;6548;49.996;8.238;2022-08-21T16:37:28;4.15;;;1.58;;
12966;SDS011;6548;49.996;8.238;2022-08-21T16:39:53;3.63;;;1.35;;
12966;SDS011;6548;49.996;8.238;2022-08-21T16:42:21;3.17;;;1.73;;
12966;SDS011;6548;49.996;8.238;2022-08-21T16:44:49;3.83;;;1.30;;
12966;SDS011;6548;49.996;8.238;2022-08-21T16:47:15;1.85;;;1.30;;
12966;SDS011;6548;49.996;8.238;2022-08-21T16:49:42;3.47;;;1.60;;
12966;SDS011;6548;49.996;8.238;2022-08-21T16:52:07;2.97;;;1.50;;
12966;SDS011;6548;49.996;8.238;2022-08-21T16:54:33;4.40;;;1.60;;
12966;SDS011;6548;49.996;8.238;2022-08-21T16:56:59;1.95;;;1.42;;
12966;SDS011;6548;49.996;8.238;2022-08-21T16:59:25;2.25;;;1.60;;
12966;SDS011;6548;49.996;8.238;2022-08-21T17:01:51;2.65;;;1.88;;
12966;SDS011;6548;49.996;8.238;2022-08-21T17:04:18;3.20;;;1.77;;
12966;SDS011;6548;49.996;8.238;2022-08-21T17:06:44;2.70;;;1.63;;
12966;SDS011;6548;49.996;8.238;2022-08-21T17:09:11;3.05;;;2.10;;
12966;SDS011;6548;49.996;8.238;2022-08-21T17:11:38;3.30;;;1.90;;
12966;SDS011;6548;49.996;8.238;2022-08-21T17:14:18;4.82;;;2.15;;
12966;SDS011;6548;49.996;8.238;2022-08-21T17:16:48;4.18;;;2.13;;
12966;SDS011;6548;49.996;8.238;2022-08-21T17:19:17;3.20;;;1.60;;
12966;SDS011;6548;49.996;8.238;2022-08-21T17:21:45;6.28;;;2.22;;
12966;SDS011;6548;49.996;8.238;2022-08-21T17:24:10;3.78;;;1.80;;
12966;SDS011;6548;49.996;8.238;2022-08-21T17:26:39;4.80;;;1.70;;
12966;SDS011;6548;49.996;8.238;2022-08-21T17:29:08;4.03;;;1.65;;
12966;SDS011;6548;49.996;8.238;2022-08-21T17:31:38;1.58;;;1.10;;
12966;SDS011;6548;49.996;8.238;2022-08-21T17:34:05;3.35;;;1.35;;
12966;SDS011;6548;49.996;8.238;2022-08-21T17:36:31;1.85;;;1.45;;
12966;SDS011;6548;49.996;8.238;2022-08-21T17:38:56;3.10;;;2.00;;
12966;SDS011;6548;49.996;8.238;2022-08-21T17:41:23;4.35;;;1.38;;
12966;SDS011;6548;49.996;8.238;2022-08-21T17:43:50;1.73;;;1.33;;
12966;SDS011;6548;49.996;8.238;2022-08-21T17:46:18;2.38;;;1.42;;
12966;SDS011;6548;49.996;8.238;2022-08-21T17:48:50;6.18;;;1.50;;
12966;SDS011;6548;49.996;8.238;2022-08-21T17:51:16;2.17;;;1.30;;